sensor_id;sensor_type;location;lat;lon;timestamp;P1;durP1;ratioP1;P2;durP2;ratioP2
71973;SDS011;59840;52.122;5.404;2022-10-30T01:31:30;9.23;;;4.03;;
71973;SDS011;59840;52.122;5.404;2022-10-30T01:42:09;5.25;;;3.97;;
71973;SDS011;59840;52.122;5.404;2022-10-30T02:09:07;5.68;;;3.35;;
71973;SDS011;59840;52.122;5.404;2022-10-30T02:22:46;4.97;;;3.33;;
71973;SDS011;59840;52.122;5.404;2022-10-30T02:47:48;6.17;;;3.80;;
71973;SDS011;59840;52.122;5.404;2022-10-30T02:54:11;7.15;;;3.92;;
71973;SDS011;59840;52.122;5.404;2022-10-30T03:00:29;6.80;;;4.00;;
71973;SDS011;59840;52.122;5.404;2022-10-30T03:06:57;3.88;;;3.53;;
71973;SDS011;59840;52.122;5.404;2022-10-30T03:13:19;5.25;;;4.32;;
71973;SDS011;59840;52.122;5.404;2022-10-30T03:23:46;5.10;;;2.72;;
71973;SDS011;59840;52.122;5.404;2022-10-30T03:26:12;3.53;;;3.03;;
71973;SDS011;59840;52.122;5.404;2022-10-30T03:28:49;4.20;;;3.80;;
71973;SDS011;59840;52.122;5.404;2022-10-30T03:35:03;5.63;;;2.83;;
71973;SDS011;59840;52.122;5.404;2022-10-30T04:02:45;5.70;;;3.70;;
71973;SDS011;59840;52.122;5.404;2022-10-30T04:17:00;4.60;;;3.10;;
71973;SDS011;59840;52.122;5.404;2022-10-30T04:37:00;7.68;;;3.58;;
71973;SDS011;59840;52.122;5.404;2022-10-30T04:43:19;4.15;;;3.20;;
71973;SDS011;59840;52.122;5.404;2022-10-30T04:49:43;5.00;;;3.50;;
71973;SDS011;59840;52.122;5.404;2022-10-30T04:52:10;4.95;;;3.55;;
71973;SDS011;59840;52.122;5.404;2022-10-30T04:54:36;5.38;;;3.00;;
71973;SDS011;59840;52.122;5.404;2022-10-30T04:57:14;7.95;;;3.47;;
71973;SDS011;59840;52.122;5.404;2022-10-30T05:03:41;6.95;;;2.85;;
71973;SDS011;59840;52.122;5.404;2022-10-30T05:16:11;4.83;;;2.67;;
71973;SDS011;59840;52.122;5.404;2022-10-30T05:18:37;6.30;;;3.13;;
71973;SDS011;59840;52.122;5.404;2022-10-30T05:21:04;4.20;;;2.78;;
71973;SDS011;59840;52.122;5.404;2022-10-30T05:23:31;5.97;;;3.13;;
71973;SDS011;59840;52.122;5.404;2022-10-30T05:32:59;3.40;;;2.72;;
71973;SDS011;59840;52.122;5.404;2022-10-30T05:39:30;3.38;;;2.38;;
71973;SDS011;59840;52.122;5.404;2022-10-30T05:46:08;3.70;;;2.17;;
71973;SDS011;59840;52.122;5.404;2022-10-30T05:52:31;5.70;;;3.72;;
71973;SDS011;59840;52.122;5.404;2022-10-30T05:58:53;5.55;;;3.17;;
71973;SDS011;59840;52.122;5.404;2022-10-30T06:01:20;6.83;;;3.67;;
71973;SDS011;59840;52.122;5.404;2022-10-30T06:03:46;4.15;;;3.53;;
71973;SDS011;59840;52.122;5.404;2022-10-30T06:06:33;3.72;;;3.33;;
71973;SDS011;59840;52.122;5.404;2022-10-30T06:12:53;4.07;;;3.13;;
71973;SDS011;59840;52.122;5.404;2022-10-30T06:19:10;4.05;;;3.58;;
71973;SDS011;59840;52.122;5.404;2022-10-30T06:25:35;5.15;;;3.38;;
71973;SDS011;59840;52.122;5.404;2022-10-30T06:28:07;6.70;;;3.38;;
71973;SDS011;59840;52.122;5.404;2022-10-30T06:30:35;7.53;;;3.10;;
71973;SDS011;59840;52.122;5.404;2022-10-30T06:33:03;4.28;;;3.58;;
71973;SDS011;59840;52.122;5.404;2022-10-30T06:39:15;4.40;;;3.30;;
71973;SDS011;59840;52.122;5.404;2022-10-30T06:41:42;5.55;;;3.20;;
71973;SDS011;59840;52.122;5.404;2022-10-30T06:44:08;4.20;;;3.07;;
71973;SDS011;59840;52.122;5.404;2022-10-30T06:46:43;6.93;;;3.60;;
71973;SDS011;59840;52.122;5.404;2022-10-30T06:49:09;5.05;;;3.33;;
71973;SDS011;59840;52.122;5.404;2022-10-30T06:51:36;3.97;;;3.25;;
71973;SDS011;59840;52.122;5.404;2022-10-30T06:54:02;5.15;;;3.08;;
71973;SDS011;59840;52.122;5.404;2022-10-30T06:56:29;2.73;;;2.30;;
71973;SDS011;59840;52.122;5.404;2022-10-30T06:58:55;3.72;;;2.10;;
71973;SDS011;59840;52.122;5.404;2022-10-30T07:01:22;2.67;;;2.20;;
71973;SDS011;59840;52.122;5.404;2022-10-30T07:03:48;2.95;;;2.20;;
71973;SDS011;59840;52.122;5.404;2022-10-30T07:06:15;3.53;;;2.17;;
71973;SDS011;59840;52.122;5.404;2022-10-30T07:08:41;2.67;;;2.03;;
71973;SDS011;59840;52.122;5.404;2022-10-30T07:11:08;4.53;;;2.92;;
71973;SDS011;59840;52.122;5.404;2022-10-30T07:13:34;2.70;;;2.35;;
71973;SDS011;59840;52.122;5.404;2022-10-30T07:16:01;3.30;;;2.17;;
71973;SDS011;59840;52.122;5.404;2022-10-30T07:18:27;3.35;;;2.45;;
71973;SDS011;59840;52.122;5.404;2022-10-30T07:20:54;5.03;;;2.87;;
71973;SDS011;59840;52.122;5.404;2022-10-30T07:23:21;4.13;;;2.70;;
71973;SDS011;59840;52.122;5.404;2022-10-30T07:25:48;2.72;;;2.10;;
71973;SDS011;59840;52.122;5.404;2022-10-30T07:28:15;4.47;;;2.80;;
71973;SDS011;59840;52.122;5.404;2022-10-30T07:30:42;3.42;;;2.65;;
71973;SDS011;59840;52.122;5.404;2022-10-30T07:33:09;4.77;;;3.00;;
71973;SDS011;59840;52.122;5.404;2022-10-30T07:35:35;7.25;;;3.45;;
71973;SDS011;59840;52.122;5.404;2022-10-30T07:38:09;5.72;;;3.60;;
71973;SDS011;59840;52.122;5.404;2022-10-30T07:40:37;10.68;;;3.38;;
71973;SDS011;59840;52.122;5.404;2022-10-30T07:43:03;5.78;;;3.28;;
71973;SDS011;59840;52.122;5.404;2022-10-30T07:45:31;5.60;;;3.60;;
71973;SDS011;59840;52.122;5.404;2022-10-30T07:47:58;7.35;;;3.45;;
71973;SDS011;59840;52.122;5.404;2022-10-30T07:50:25;5.85;;;4.03;;
71973;SDS011;59840;52.122;5.404;2022-10-30T07:52:52;6.93;;;3.67;;
71973;SDS011;59840;52.122;5.404;2022-10-30T07:55:19;5.05;;;4.00;;
71973;SDS011;59840;52.122;5.404;2022-10-30T07:57:45;8.97;;;4.33;;
71973;SDS011;59840;52.122;5.404;2022-10-30T08:00:12;9.18;;;4.20;;
71973;SDS011;59840;52.122;5.404;2022-10-30T08:02:40;11.13;;;4.68;;
71973;SDS011;59840;52.122;5.404;2022-10-30T08:05:08;6.97;;;4.95;;
71973;SDS011;59840;52.122;5.404;2022-10-30T08:07:36;12.82;;;5.50;;
71973;SDS011;59840;52.122;5.404;2022-10-30T08:10:04;9.43;;;5.77;;
71973;SDS011;59840;52.122;5.404;2022-10-30T08:12:32;11.05;;;6.05;;
71973;SDS011;59840;52.122;5.404;2022-10-30T08:14:59;11.55;;;5.65;;
71973;SDS011;59840;52.122;5.404;2022-10-30T08:17:26;10.30;;;5.68;;
71973;SDS011;59840;52.122;5.404;2022-10-30T08:19:53;8.95;;;5.63;;
71973;SDS011;59840;52.122;5.404;2022-10-30T08:22:20;10.63;;;6.67;;
71973;SDS011;59840;52.122;5.404;2022-10-30T08:24:46;10.48;;;6.68;;
71973;SDS011;59840;52.122;5.404;2022-10-30T08:27:13;13.60;;;6.43;;
71973;SDS011;59840;52.122;5.404;2022-10-30T08:29:39;15.73;;;7.40;;
71973;SDS011;59840;52.122;5.404;2022-10-30T08:32:07;11.85;;;6.78;;
71973;SDS011;59840;52.122;5.404;2022-10-30T08:34:33;10.47;;;6.80;;
71973;SDS011;59840;52.122;5.404;2022-10-30T08:37:00;13.38;;;6.80;;
71973;SDS011;59840;52.122;5.404;2022-10-30T08:39:27;12.35;;;7.38;;
71973;SDS011;59840;52.122;5.404;2022-10-30T08:41:54;12.77;;;7.32;;
71973;SDS011;59840;52.122;5.404;2022-10-30T08:44:22;12.70;;;7.47;;
71973;SDS011;59840;52.122;5.404;2022-10-30T08:46:48;13.57;;;7.53;;
71973;SDS011;59840;52.122;5.404;2022-10-30T08:49:15;14.95;;;7.57;;
71973;SDS011;59840;52.122;5.404;2022-10-30T08:51:41;15.63;;;8.13;;
71973;SDS011;59840;52.122;5.404;2022-10-30T08:54:08;11.20;;;7.35;;
71973;SDS011;59840;52.122;5.404;2022-10-30T08:56:35;12.40;;;7.50;;
71973;SDS011;59840;52.122;5.404;2022-10-30T08:59:02;11.97;;;7.20;;
71973;SDS011;59840;52.122;5.404;2022-10-30T09:01:28;14.23;;;8.30;;
71973;SDS011;59840;52.122;5.404;2022-10-30T09:03:54;14.50;;;8.00;;
71973;SDS011;59840;52.122;5.404;2022-10-30T09:06:21;12.60;;;7.63;;
71973;SDS011;59840;52.122;5.404;2022-10-30T09:08:47;14.38;;;7.18;;
71973;SDS011;59840;52.122;5.404;2022-10-30T09:11:14;12.07;;;7.57;;
71973;SDS011;59840;52.122;5.404;2022-10-30T09:13:42;13.45;;;7.05;;
71973;SDS011;59840;52.122;5.404;2022-10-30T09:16:09;15.88;;;7.00;;
71973;SDS011;59840;52.122;5.404;2022-10-30T09:18:35;14.63;;;6.97;;
71973;SDS011;59840;52.122;5.404;2022-10-30T09:21:02;12.95;;;7.25;;
71973;SDS011;59840;52.122;5.404;2022-10-30T09:23:30;17.83;;;8.13;;
71973;SDS011;59840;52.122;5.404;2022-10-30T09:25:57;13.93;;;6.80;;
71973;SDS011;59840;52.122;5.404;2022-10-30T09:28:24;16.13;;;7.30;;
71973;SDS011;59840;52.122;5.404;2022-10-30T09:30:50;17.35;;;7.45;;
71973;SDS011;59840;52.122;5.404;2022-10-30T09:33:21;11.82;;;7.72;;
71973;SDS011;59840;52.122;5.404;2022-10-30T09:35:48;12.53;;;7.60;;
71973;SDS011;59840;52.122;5.404;2022-10-30T09:38:14;12.80;;;6.78;;
71973;SDS011;59840;52.122;5.404;2022-10-30T09:46:08;17.40;;;6.68;;
71973;SDS011;59840;52.122;5.404;2022-10-30T09:54:26;10.68;;;6.57;;
71973;SDS011;59840;52.122;5.404;2022-10-30T09:56:58;15.63;;;7.47;;
71973;SDS011;59840;52.122;5.404;2022-10-30T10:02:13;10.73;;;6.80;;
71973;SDS011;59840;52.122;5.404;2022-10-30T10:07:53;14.25;;;6.32;;
71973;SDS011;59840;52.122;5.404;2022-10-30T10:13:10;10.60;;;6.30;;
71973;SDS011;59840;52.122;5.404;2022-10-30T10:15:53;10.93;;;6.33;;
71973;SDS011;59840;52.122;5.404;2022-10-30T10:18:24;11.18;;;6.13;;
71973;SDS011;59840;52.122;5.404;2022-10-30T10:20:56;20.67;;;6.97;;
71973;SDS011;59840;52.122;5.404;2022-10-30T10:23:34;12.13;;;6.13;;
71973;SDS011;59840;52.122;5.404;2022-10-30T10:26:18;14.98;;;6.20;;
71973;SDS011;59840;52.122;5.404;2022-10-30T10:29:07;14.43;;;6.03;;
71973;SDS011;59840;52.122;5.404;2022-10-30T10:31:49;13.32;;;5.97;;
71973;SDS011;59840;52.122;5.404;2022-10-30T11:18:51;11.57;;;5.53;;
71973;SDS011;59840;52.122;5.404;2022-10-30T11:21:22;13.37;;;5.90;;
71973;SDS011;59840;52.122;5.404;2022-10-30T11:23:51;14.30;;;5.40;;
71973;SDS011;59840;52.122;5.404;2022-10-30T11:29:04;12.95;;;5.57;;
71973;SDS011;59840;52.122;5.404;2022-10-30T11:34:34;10.00;;;5.33;;
71973;SDS011;59840;52.122;5.404;2022-10-30T11:37:03;14.25;;;5.90;;
71973;SDS011;59840;52.122;5.404;2022-10-30T12:06:46;13.70;;;6.47;;
71973;SDS011;59840;52.122;5.404;2022-10-30T12:09:13;10.60;;;5.60;;
71973;SDS011;59840;52.122;5.404;2022-10-30T12:11:46;11.23;;;6.45;;
71973;SDS011;59840;52.122;5.404;2022-10-30T15:25:23;10.98;;;6.43;;
71973;SDS011;59840;52.122;5.404;2022-10-30T15:27:55;15.32;;;7.30;;
71973;SDS011;59840;52.122;5.404;2022-10-30T16:09:03;16.23;;;6.88;;
71973;SDS011;59840;52.122;5.404;2022-10-30T16:58:46;10.03;;;4.70;;
71973;SDS011;59840;52.122;5.404;2022-10-30T17:01:13;9.73;;;3.70;;
71973;SDS011;59840;52.122;5.404;2022-10-30T17:03:44;11.88;;;4.10;;
71973;SDS011;59840;52.122;5.404;2022-10-30T17:16:55;7.13;;;2.10;;
71973;SDS011;59840;52.122;5.404;2022-10-30T17:23:23;6.78;;;1.65;;
71973;SDS011;59840;52.122;5.404;2022-10-30T17:35:05;6.63;;;2.25;;
71973;SDS011;59840;52.122;5.404;2022-10-30T17:37:39;6.70;;;1.98;;
71973;SDS011;59840;52.122;5.404;2022-10-30T17:40:09;4.03;;;2.20;;
71973;SDS011;59840;52.122;5.404;2022-10-30T17:42:39;7.18;;;2.22;;
71973;SDS011;59840;52.122;5.404;2022-10-30T17:45:08;12.17;;;3.00;;
71973;SDS011;59840;52.122;5.404;2022-10-30T17:47:40;4.55;;;3.00;;
71973;SDS011;59840;52.122;5.404;2022-10-30T17:53:52;10.77;;;2.80;;
71973;SDS011;59840;52.122;5.404;2022-10-30T18:00:01;6.80;;;3.50;;
71973;SDS011;59840;52.122;5.404;2022-10-30T18:02:28;10.38;;;4.28;;
71973;SDS011;59840;52.122;5.404;2022-10-30T18:04:54;5.70;;;3.60;;
71973;SDS011;59840;52.122;5.404;2022-10-30T18:07:21;11.50;;;6.10;;
71973;SDS011;59840;52.122;5.404;2022-10-30T18:09:48;14.00;;;7.25;;
71973;SDS011;59840;52.122;5.404;2022-10-30T18:12:15;18.07;;;7.27;;
71973;SDS011;59840;52.122;5.404;2022-10-30T18:14:42;10.38;;;5.38;;
71973;SDS011;59840;52.122;5.404;2022-10-30T18:17:10;7.57;;;4.53;;
71973;SDS011;59840;52.122;5.404;2022-10-30T18:19:37;4.70;;;3.22;;
71973;SDS011;59840;52.122;5.404;2022-10-30T18:22:04;8.52;;;3.72;;
71973;SDS011;59840;52.122;5.404;2022-10-30T18:24:31;6.90;;;3.37;;
71973;SDS011;59840;52.122;5.404;2022-10-30T18:26:58;5.03;;;3.25;;
71973;SDS011;59840;52.122;5.404;2022-10-30T18:29:24;7.68;;;3.25;;
71973;SDS011;59840;52.122;5.404;2022-10-30T18:32:04;6.97;;;3.05;;
71973;SDS011;59840;52.122;5.404;2022-10-30T18:34:39;6.78;;;2.97;;
71973;SDS011;59840;52.122;5.404;2022-10-30T18:37:07;7.97;;;3.40;;
71973;SDS011;59840;52.122;5.404;2022-10-30T18:39:34;10.25;;;4.05;;
71973;SDS011;59840;52.122;5.404;2022-10-30T18:42:09;6.80;;;2.60;;
71973;SDS011;59840;52.122;5.404;2022-10-30T18:44:35;11.57;;;4.00;;
71973;SDS011;59840;52.122;5.404;2022-10-30T18:47:04;27.95;;;7.75;;
71973;SDS011;59840;52.122;5.404;2022-10-30T18:49:34;8.43;;;3.80;;
71973;SDS011;59840;52.122;5.404;2022-10-30T18:52:01;12.25;;;4.65;;
71973;SDS011;59840;52.122;5.404;2022-10-30T19:13:11;10.25;;;5.65;;
71973;SDS011;59840;52.122;5.404;2022-10-30T19:15:42;7.45;;;5.13;;
71973;SDS011;59840;52.122;5.404;2022-10-30T19:25:46;17.75;;;7.03;;
71973;SDS011;59840;52.122;5.404;2022-10-30T19:28:14;12.43;;;5.90;;
71973;SDS011;59840;52.122;5.404;2022-10-30T19:30:42;13.38;;;5.60;;
71973;SDS011;59840;52.122;5.404;2022-10-30T19:33:16;14.85;;;6.32;;
71973;SDS011;59840;52.122;5.404;2022-10-30T19:35:43;14.77;;;6.27;;
71973;SDS011;59840;52.122;5.404;2022-10-30T19:38:10;11.23;;;5.25;;
71973;SDS011;59840;52.122;5.404;2022-10-30T19:40:37;11.10;;;6.65;;
71973;SDS011;59840;52.122;5.404;2022-10-30T19:46:11;13.48;;;4.93;;
71973;SDS011;59840;52.122;5.404;2022-10-30T19:48:39;8.83;;;4.90;;
71973;SDS011;59840;52.122;5.404;2022-10-30T19:51:23;12.40;;;5.43;;
71973;SDS011;59840;52.122;5.404;2022-10-30T19:53:49;11.50;;;6.07;;
71973;SDS011;59840;52.122;5.404;2022-10-30T19:56:18;6.50;;;3.72;;
71973;SDS011;59840;52.122;5.404;2022-10-30T19:58:45;13.35;;;6.07;;
71973;SDS011;59840;52.122;5.404;2022-10-30T20:01:11;10.03;;;5.07;;
71973;SDS011;59840;52.122;5.404;2022-10-30T20:03:39;11.23;;;5.93;;
71973;SDS011;59840;52.122;5.404;2022-10-30T20:06:05;13.80;;;6.30;;
71973;SDS011;59840;52.122;5.404;2022-10-30T20:08:32;14.82;;;6.13;;
71973;SDS011;59840;52.122;5.404;2022-10-30T20:10:59;15.20;;;6.07;;
71973;SDS011;59840;52.122;5.404;2022-10-30T20:13:27;10.37;;;4.83;;
71973;SDS011;59840;52.122;5.404;2022-10-30T20:15:55;6.25;;;4.53;;
71973;SDS011;59840;52.122;5.404;2022-10-30T20:18:30;9.30;;;5.63;;
71973;SDS011;59840;52.122;5.404;2022-10-30T20:20:59;5.25;;;4.25;;
71973;SDS011;59840;52.122;5.404;2022-10-30T20:26:48;8.17;;;4.20;;
71973;SDS011;59840;52.122;5.404;2022-10-30T20:29:15;7.22;;;4.07;;
71973;SDS011;59840;52.122;5.404;2022-10-30T20:31:42;9.77;;;4.13;;
71973;SDS011;59840;52.122;5.404;2022-10-30T20:34:08;4.55;;;2.88;;
71973;SDS011;59840;52.122;5.404;2022-10-30T20:36:35;9.88;;;5.45;;
71973;SDS011;59840;52.122;5.404;2022-10-30T20:39:01;15.37;;;6.60;;
71973;SDS011;59840;52.122;5.404;2022-10-30T20:41:28;15.82;;;6.35;;
71973;SDS011;59840;52.122;5.404;2022-10-30T20:43:55;13.65;;;6.22;;
71973;SDS011;59840;52.122;5.404;2022-10-30T20:46:21;14.00;;;5.78;;
71973;SDS011;59840;52.122;5.404;2022-10-30T20:48:48;14.90;;;6.20;;
71973;SDS011;59840;52.122;5.404;2022-10-30T20:51:14;11.07;;;6.13;;
71973;SDS011;59840;52.122;5.404;2022-10-30T20:53:41;15.57;;;5.85;;
71973;SDS011;59840;52.122;5.404;2022-10-30T20:56:08;11.57;;;5.80;;
71973;SDS011;59840;52.122;5.404;2022-10-30T20:58:36;11.98;;;5.60;;
71973;SDS011;59840;52.122;5.404;2022-10-30T21:01:09;14.50;;;5.55;;
71973;SDS011;59840;52.122;5.404;2022-10-30T21:03:37;16.57;;;7.00;;
71973;SDS011;59840;52.122;5.404;2022-10-30T21:06:03;12.90;;;6.88;;
71973;SDS011;59840;52.122;5.404;2022-10-30T21:11:22;17.20;;;7.22;;
71973;SDS011;59840;52.122;5.404;2022-10-30T21:16:53;15.47;;;7.03;;
71973;SDS011;59840;52.122;5.404;2022-10-30T21:19:19;11.98;;;6.78;;
71973;SDS011;59840;52.122;5.404;2022-10-30T21:21:47;14.73;;;7.85;;
71973;SDS011;59840;52.122;5.404;2022-10-30T21:24:13;19.23;;;8.48;;
71973;SDS011;59840;52.122;5.404;2022-10-30T21:26:40;13.60;;;7.50;;
71973;SDS011;59840;52.122;5.404;2022-10-30T21:29:06;8.00;;;5.20;;
71973;SDS011;59840;52.122;5.404;2022-10-30T21:31:33;9.38;;;4.70;;
71973;SDS011;59840;52.122;5.404;2022-10-30T21:34:00;6.57;;;4.85;;
71973;SDS011;59840;52.122;5.404;2022-10-30T21:36:26;4.38;;;3.63;;
71973;SDS011;59840;52.122;5.404;2022-10-30T21:38:53;5.28;;;4.25;;
71973;SDS011;59840;52.122;5.404;2022-10-30T21:41:20;4.80;;;3.60;;
71973;SDS011;59840;52.122;5.404;2022-10-30T21:43:51;4.43;;;3.80;;
71973;SDS011;59840;52.122;5.404;2022-10-30T21:46:20;5.93;;;3.45;;
71973;SDS011;59840;52.122;5.404;2022-10-30T21:59:40;5.40;;;3.28;;
71973;SDS011;59840;52.122;5.404;2022-10-30T22:02:09;4.32;;;3.20;;
71973;SDS011;59840;52.122;5.404;2022-10-30T22:04:40;3.38;;;2.55;;
71973;SDS011;59840;52.122;5.404;2022-10-30T22:07:06;9.20;;;3.15;;
71973;SDS011;59840;52.122;5.404;2022-10-30T22:09:33;2.60;;;1.83;;
71973;SDS011;59840;52.122;5.404;2022-10-30T22:12:00;2.17;;;1.98;;
71973;SDS011;59840;52.122;5.404;2022-10-30T22:14:26;4.90;;;1.80;;
71973;SDS011;59840;52.122;5.404;2022-10-30T22:16:54;2.00;;;1.60;;
71973;SDS011;59840;52.122;5.404;2022-10-30T22:19:21;3.95;;;2.30;;
71973;SDS011;59840;52.122;5.404;2022-10-30T22:21:47;3.10;;;2.33;;
71973;SDS011;59840;52.122;5.404;2022-10-30T22:24:14;4.18;;;2.42;;
71973;SDS011;59840;52.122;5.404;2022-10-30T22:26:42;2.85;;;2.03;;
71973;SDS011;59840;52.122;5.404;2022-10-30T22:29:09;6.40;;;2.53;;
71973;SDS011;59840;52.122;5.404;2022-10-30T22:31:36;4.45;;;2.78;;
71973;SDS011;59840;52.122;5.404;2022-10-30T22:34:03;5.27;;;2.23;;
71973;SDS011;59840;52.122;5.404;2022-10-30T22:36:30;4.72;;;2.33;;
71973;SDS011;59840;52.122;5.404;2022-10-30T22:38:59;6.38;;;2.30;;
71973;SDS011;59840;52.122;5.404;2022-10-30T22:41:28;4.97;;;2.20;;
71973;SDS011;59840;52.122;5.404;2022-10-30T22:44:15;3.55;;;2.25;;
71973;SDS011;59840;52.122;5.404;2022-10-30T22:46:45;3.73;;;2.30;;
71973;SDS011;59840;52.122;5.404;2022-10-30T23:03:05;3.67;;;1.77;;
71973;SDS011;59840;52.122;5.404;2022-10-30T23:05:31;3.17;;;2.05;;
71973;SDS011;59840;52.122;5.404;2022-10-30T23:08:06;3.28;;;2.40;;
71973;SDS011;59840;52.122;5.404;2022-10-30T23:10:33;3.38;;;1.92;;
71973;SDS011;59840;52.122;5.404;2022-10-30T23:12:59;3.65;;;2.40;;
71973;SDS011;59840;52.122;5.404;2022-10-30T23:15:37;5.63;;;2.33;;
71973;SDS011;59840;52.122;5.404;2022-10-30T23:21:29;4.45;;;2.55;;
71973;SDS011;59840;52.122;5.404;2022-10-30T23:23:56;3.63;;;2.05;;
71973;SDS011;59840;52.122;5.404;2022-10-30T23:26:28;3.75;;;2.80;;
71973;SDS011;59840;52.122;5.404;2022-10-30T23:28:58;5.53;;;3.03;;
71973;SDS011;59840;52.122;5.404;2022-10-30T23:33:56;6.07;;;3.90;;
71973;SDS011;59840;52.122;5.404;2022-10-30T23:36:24;5.32;;;2.88;;
71973;SDS011;59840;52.122;5.404;2022-10-30T23:38:55;5.80;;;3.10;;
71973;SDS011;59840;52.122;5.404;2022-10-30T23:41:23;4.70;;;3.60;;
71973;SDS011;59840;52.122;5.404;2022-10-30T23:43:55;5.13;;;3.15;;
71973;SDS011;59840;52.122;5.404;2022-10-30T23:46:23;6.70;;;3.85;;
71973;SDS011;59840;52.122;5.404;2022-10-30T23:48:50;7.15;;;3.50;;
71973;SDS011;59840;52.122;5.404;2022-10-30T23:51:16;2.72;;;2.35;;
71973;SDS011;59840;52.122;5.404;2022-10-30T23:53:43;4.67;;;3.00;;
71973;SDS011;59840;52.122;5.404;2022-10-30T23:56:10;5.85;;;2.75;;
71973;SDS011;59840;52.122;5.404;2022-10-30T23:58:37;4.70;;;3.35;;
